Gustavus, AK

12:30 AM AKST on January 31, 2015 (GMT -0900)
Skagway | Change Station
CLOSE
Current Station
Airport
Location: Skagway,
Elevation: 16 ft
Nearby Weather Stations

Elev 16 ft 59.46 °N, 135.32 °W | Updated 37 minutes ago

Clear
Clear
22 °F
Feels Like 10 °F
N
12
Wind Variable Wind from NE
Gusts 34 mph

Today
High -- | Low -- °F
--% Chance of Precip.
Yesterday
High -- | Low -- °F
Precip. -- in
8:17 AM 4:25 PM
Waxing Gibbous, 88% visible
Pressure 30.70 in
Visibility 10.0 miles
Clouds Clear
Windchill 10 °F
Dew Point 7 °F
Humidity 53%
Rainfall 0.00 in
Snow Depth Not available.
UV 0 out of 12
Pollen Not available.
Air Quality Not available.
Flu Activity Not available.
METAR PAGY 310853Z AUTO 05010G30KT 10SM CLR M06/M14 A3070 RMK AO2 PK WND 05032/0829 SLP394 T10561139 410221067 53016 TSNO

More Conditions Fewer Conditions

Pressure 30.70 in
Visibility 10.0 miles
Clouds Clear
Windchill 10 °F
Dew Point 7 °F
Humidity 53%
Rainfall 0.00 in
Snow Depth Not available.
UV 0 out of 12
Pollen Not available.
Air Quality Not available.
Flu Activity Not available.
METAR PAGY 310853Z AUTO 05010G30KT 10SM CLR M06/M14 A3070 RMK AO2 PK WND 05032/0829 SLP394 T10561139 410221067 53016 TSNO

More Conditions Fewer Conditions

10-Day Weather Forecast

Almanac

Astronomy

Jan. 31, 2015 Rise Set
Actual Time
Civil Twilight
Nautical Twilight
Astronomical Twilight
Moon
Length of Visible Light
Length of Day
Tomorrow will be .
, % of the Moon is Illuminated

Today's Extremes

State Highs State Lows

Community

WunderPhotos

Upload Photos

1,792,021 photos uploaded!

WunderBlogs® & News

Nearby

Air Quality

  Air Quality AQ Index Pollutant
Not available.

Snow Depth

Station Depth Elevation

Earthquake Activity

City Distance Mag. Time & Date
Minimum magnitude displayed is 2.5.

Coastal Water Temperatures

Place Temperature

Nearby Weather Stations